sensor_id;sensor_type;location;lat;lon;timestamp;temperature;humidity
61841;DHT22;47773;53.174;6.614;2022-08-03T00:01:21;20.30;99.90
61841;DHT22;47773;53.174;6.614;2022-08-03T00:03:46;20.30;99.90
61841;DHT22;47773;53.174;6.614;2022-08-03T00:06:12;20.20;99.90
61841;DHT22;47773;53.174;6.614;2022-08-03T00:08:38;20.20;99.90
61841;DHT22;47773;53.174;6.614;2022-08-03T00:11:03;20.10;99.90
61841;DHT22;47773;53.174;6.614;2022-08-03T00:13:32;20.10;99.90
61841;DHT22;47773;53.174;6.614;2022-08-03T00:15:58;20.10;99.90
61841;DHT22;47773;53.174;6.614;2022-08-03T00:18:23;20.10;99.90
61841;DHT22;47773;53.174;6.614;2022-08-03T00:20:49;20.10;99.90
61841;DHT22;47773;53.174;6.614;2022-08-03T00:23:15;20.10;99.90
61841;DHT22;47773;53.174;6.614;2022-08-03T00:25:41;20.10;99.90
61841;DHT22;47773;53.174;6.614;2022-08-03T00:28:06;20.10;99.90
61841;DHT22;47773;53.174;6.614;2022-08-03T00:30:33;20.10;99.90
61841;DHT22;47773;53.174;6.614;2022-08-03T00:32:59;20.10;99.90
61841;DHT22;47773;53.174;6.614;2022-08-03T00:35:25;20.00;99.90
61841;DHT22;47773;53.174;6.614;2022-08-03T00:37:51;20.00;99.90
61841;DHT22;47773;53.174;6.614;2022-08-03T00:40:17;20.00;99.90
61841;DHT22;47773;53.174;6.614;2022-08-03T00:42:57;20.00;99.90
61841;DHT22;47773;53.174;6.614;2022-08-03T00:45:29;20.00;99.90
61841;DHT22;47773;53.174;6.614;2022-08-03T00:47:55;20.00;99.90
61841;DHT22;47773;53.174;6.614;2022-08-03T00:50:23;19.90;99.90
61841;DHT22;47773;53.174;6.614;2022-08-03T00:52:51;19.90;99.90
61841;DHT22;47773;53.174;6.614;2022-08-03T00:55:17;19.80;99.90
61841;DHT22;47773;53.174;6.614;2022-08-03T00:57:43;19.90;99.90
61841;DHT22;47773;53.174;6.614;2022-08-03T01:00:11;19.80;99.90
61841;DHT22;47773;53.174;6.614;2022-08-03T01:02:38;19.80;99.90
61841;DHT22;47773;53.174;6.614;2022-08-03T01:05:05;19.80;99.90
61841;DHT22;47773;53.174;6.614;2022-08-03T01:13:02;19.60;99.90
61841;DHT22;47773;53.174;6.614;2022-08-03T01:15:49;19.60;99.90
61841;DHT22;47773;53.174;6.614;2022-08-03T01:18:27;19.60;99.90
61841;DHT22;47773;53.174;6.614;2022-08-03T01:20:57;19.50;99.90
61841;DHT22;47773;53.174;6.614;2022-08-03T01:26:31;19.50;99.90
61841;DHT22;47773;53.174;6.614;2022-08-03T01:31:40;19.40;99.90
61841;DHT22;47773;53.174;6.614;2022-08-03T01:34:10;19.40;99.90
61841;DHT22;47773;53.174;6.614;2022-08-03T01:36:42;19.40;99.90
61841;DHT22;47773;53.174;6.614;2022-08-03T01:39:09;19.30;99.90
61841;DHT22;47773;53.174;6.614;2022-08-03T01:41:47;19.30;99.90
61841;DHT22;47773;53.174;6.614;2022-08-03T01:44:14;19.40;99.90
61841;DHT22;47773;53.174;6.614;2022-08-03T01:46:41;19.30;99.90
61841;DHT22;47773;53.174;6.614;2022-08-03T01:49:10;19.30;99.90
61841;DHT22;47773;53.174;6.614;2022-08-03T01:51:41;19.30;99.90
61841;DHT22;47773;53.174;6.614;2022-08-03T01:54:09;19.30;99.90
61841;DHT22;47773;53.174;6.614;2022-08-03T01:56:37;19.30;99.90
61841;DHT22;47773;53.174;6.614;2022-08-03T01:59:03;19.30;99.90
61841;DHT22;47773;53.174;6.614;2022-08-03T02:01:30;19.30;99.90
61841;DHT22;47773;53.174;6.614;2022-08-03T02:03:57;19.30;99.90
61841;DHT22;47773;53.174;6.614;2022-08-03T02:06:24;19.30;99.90
61841;DHT22;47773;53.174;6.614;2022-08-03T02:08:51;19.30;99.90
61841;DHT22;47773;53.174;6.614;2022-08-03T02:11:18;19.30;99.90
61841;DHT22;47773;53.174;6.614;2022-08-03T02:13:45;19.30;99.90
61841;DHT22;47773;53.174;6.614;2022-08-03T02:16:12;19.30;99.90
61841;DHT22;47773;53.174;6.614;2022-08-03T02:18:39;19.30;99.90
61841;DHT22;47773;53.174;6.614;2022-08-03T02:21:06;19.30;99.90
61841;DHT22;47773;53.174;6.614;2022-08-03T02:23:35;19.30;99.90
61841;DHT22;47773;53.174;6.614;2022-08-03T02:26:03;19.30;99.90
61841;DHT22;47773;53.174;6.614;2022-08-03T02:28:33;19.20;99.90
61841;DHT22;47773;53.174;6.614;2022-08-03T02:31:03;19.20;99.90
61841;DHT22;47773;53.174;6.614;2022-08-03T02:33:33;19.20;99.90
61841;DHT22;47773;53.174;6.614;2022-08-03T02:36:02;19.20;99.90
61841;DHT22;47773;53.174;6.614;2022-08-03T02:38:33;19.20;99.90
61841;DHT22;47773;53.174;6.614;2022-08-03T02:41:00;19.20;99.90
61841;DHT22;47773;53.174;6.614;2022-08-03T02:43:29;19.20;99.90
61841;DHT22;47773;53.174;6.614;2022-08-03T02:45:56;19.10;99.90
61841;DHT22;47773;53.174;6.614;2022-08-03T02:48:26;19.10;99.90
61841;DHT22;47773;53.174;6.614;2022-08-03T02:50:56;19.10;99.90
61841;DHT22;47773;53.174;6.614;2022-08-03T02:53:22;19.10;99.90
61841;DHT22;47773;53.174;6.614;2022-08-03T02:55:49;19.10;99.90
61841;DHT22;47773;53.174;6.614;2022-08-03T02:58:18;19.10;99.90
61841;DHT22;47773;53.174;6.614;2022-08-03T03:00:46;19.00;99.90
61841;DHT22;47773;53.174;6.614;2022-08-03T03:03:13;19.00;99.90
61841;DHT22;47773;53.174;6.614;2022-08-03T03:05:40;19.00;99.90
61841;DHT22;47773;53.174;6.614;2022-08-03T03:08:07;19.00;99.90
61841;DHT22;47773;53.174;6.614;2022-08-03T03:10:34;19.00;99.90
61841;DHT22;47773;53.174;6.614;2022-08-03T03:13:01;19.00;99.90
61841;DHT22;47773;53.174;6.614;2022-08-03T03:15:28;19.00;99.90
61841;DHT22;47773;53.174;6.614;2022-08-03T03:17:56;19.00;99.90
61841;DHT22;47773;53.174;6.614;2022-08-03T03:20:23;19.00;99.90
61841;DHT22;47773;53.174;6.614;2022-08-03T03:22:50;19.00;99.90
61841;DHT22;47773;53.174;6.614;2022-08-03T03:25:16;19.00;99.90
61841;DHT22;47773;53.174;6.614;2022-08-03T03:27:43;18.90;99.90
61841;DHT22;47773;53.174;6.614;2022-08-03T03:30:09;19.00;99.90
61841;DHT22;47773;53.174;6.614;2022-08-03T03:32:35;19.00;99.90
61841;DHT22;47773;53.174;6.614;2022-08-03T03:35:01;19.00;99.90
61841;DHT22;47773;53.174;6.614;2022-08-03T03:37:29;18.90;99.90
61841;DHT22;47773;53.174;6.614;2022-08-03T03:39:54;18.90;99.90
61841;DHT22;47773;53.174;6.614;2022-08-03T03:42:21;18.90;99.90
61841;DHT22;47773;53.174;6.614;2022-08-03T03:44:46;18.90;99.90
61841;DHT22;47773;53.174;6.614;2022-08-03T03:47:12;18.90;99.90
61841;DHT22;47773;53.174;6.614;2022-08-03T03:49:39;18.90;99.90
61841;DHT22;47773;53.174;6.614;2022-08-03T03:52:05;18.90;99.90
61841;DHT22;47773;53.174;6.614;2022-08-03T03:54:41;18.90;99.90
61841;DHT22;47773;53.174;6.614;2022-08-03T03:57:08;18.90;99.90
61841;DHT22;47773;53.174;6.614;2022-08-03T03:59:38;18.80;99.90
61841;DHT22;47773;53.174;6.614;2022-08-03T04:02:05;18.80;99.90
61841;DHT22;47773;53.174;6.614;2022-08-03T04:04:32;18.80;99.90
61841;DHT22;47773;53.174;6.614;2022-08-03T04:07:17;18.80;99.90
61841;DHT22;47773;53.174;6.614;2022-08-03T04:10:04;18.80;99.90
61841;DHT22;47773;53.174;6.614;2022-08-03T04:12:50;18.80;99.90
61841;DHT22;47773;53.174;6.614;2022-08-03T04:15:22;18.70;99.90
61841;DHT22;47773;53.174;6.614;2022-08-03T04:17:49;18.80;99.90
61841;DHT22;47773;53.174;6.614;2022-08-03T04:20:19;18.70;99.90
61841;DHT22;47773;53.174;6.614;2022-08-03T04:22:48;18.70;99.90
61841;DHT22;47773;53.174;6.614;2022-08-03T04:25:17;18.70;99.90
61841;DHT22;47773;53.174;6.614;2022-08-03T04:27:45;18.80;99.90
61841;DHT22;47773;53.174;6.614;2022-08-03T04:30:13;18.80;99.90
61841;DHT22;47773;53.174;6.614;2022-08-03T04:32:40;18.80;99.90
61841;DHT22;47773;53.174;6.614;2022-08-03T04:35:08;18.70;99.90
61841;DHT22;47773;53.174;6.614;2022-08-03T04:37:43;18.80;99.90
61841;DHT22;47773;53.174;6.614;2022-08-03T04:40:21;18.80;99.90
61841;DHT22;47773;53.174;6.614;2022-08-03T04:42:48;18.80;99.90
61841;DHT22;47773;53.174;6.614;2022-08-03T04:45:15;18.80;99.90
61841;DHT22;47773;53.174;6.614;2022-08-03T04:47:42;18.80;99.90
61841;DHT22;47773;53.174;6.614;2022-08-03T04:50:09;18.80;99.90
61841;DHT22;47773;53.174;6.614;2022-08-03T04:52:35;18.80;99.90
61841;DHT22;47773;53.174;6.614;2022-08-03T04:55:01;18.80;99.90
61841;DHT22;47773;53.174;6.614;2022-08-03T04:57:26;18.80;99.90
61841;DHT22;47773;53.174;6.614;2022-08-03T04:59:53;18.80;99.90
61841;DHT22;47773;53.174;6.614;2022-08-03T05:02:19;18.90;99.90
61841;DHT22;47773;53.174;6.614;2022-08-03T05:04:45;19.00;99.90
61841;DHT22;47773;53.174;6.614;2022-08-03T05:07:12;18.90;99.90
61841;DHT22;47773;53.174;6.614;2022-08-03T05:09:38;19.00;99.90
61841;DHT22;47773;53.174;6.614;2022-08-03T05:12:05;19.00;99.90
61841;DHT22;47773;53.174;6.614;2022-08-03T05:14:32;19.00;99.90
61841;DHT22;47773;53.174;6.614;2022-08-03T05:16:59;19.00;99.90
61841;DHT22;47773;53.174;6.614;2022-08-03T05:19:24;19.00;99.90
61841;DHT22;47773;53.174;6.614;2022-08-03T05:21:50;19.00;99.90
61841;DHT22;47773;53.174;6.614;2022-08-03T05:24:15;19.10;99.90
61841;DHT22;47773;53.174;6.614;2022-08-03T05:26:41;19.10;99.90
61841;DHT22;47773;53.174;6.614;2022-08-03T05:29:07;19.10;99.90
61841;DHT22;47773;53.174;6.614;2022-08-03T05:31:32;19.20;99.90
61841;DHT22;47773;53.174;6.614;2022-08-03T05:33:58;19.20;99.90
61841;DHT22;47773;53.174;6.614;2022-08-03T05:36:24;19.30;99.90
61841;DHT22;47773;53.174;6.614;2022-08-03T05:38:49;19.30;99.90
61841;DHT22;47773;53.174;6.614;2022-08-03T05:41:15;19.30;99.90
61841;DHT22;47773;53.174;6.614;2022-08-03T05:43:41;19.30;99.90
61841;DHT22;47773;53.174;6.614;2022-08-03T05:46:06;19.40;99.90
61841;DHT22;47773;53.174;6.614;2022-08-03T05:48:32;19.40;99.90
61841;DHT22;47773;53.174;6.614;2022-08-03T05:50:58;19.40;99.90
61841;DHT22;47773;53.174;6.614;2022-08-03T05:53:23;19.50;99.90
61841;DHT22;47773;53.174;6.614;2022-08-03T05:55:49;19.50;99.90
61841;DHT22;47773;53.174;6.614;2022-08-03T05:58:14;19.50;99.90
61841;DHT22;47773;53.174;6.614;2022-08-03T06:00:40;19.60;99.90
61841;DHT22;47773;53.174;6.614;2022-08-03T06:03:06;19.60;99.90
61841;DHT22;47773;53.174;6.614;2022-08-03T06:05:31;19.60;99.90
61841;DHT22;47773;53.174;6.614;2022-08-03T06:08:01;19.70;99.90
61841;DHT22;47773;53.174;6.614;2022-08-03T06:10:27;19.80;99.90
61841;DHT22;47773;53.174;6.614;2022-08-03T06:12:52;19.80;99.90
61841;DHT22;47773;53.174;6.614;2022-08-03T06:15:18;19.90;99.90
61841;DHT22;47773;53.174;6.614;2022-08-03T06:17:47;20.00;99.90
61841;DHT22;47773;53.174;6.614;2022-08-03T06:20:16;20.00;99.90
61841;DHT22;47773;53.174;6.614;2022-08-03T06:22:42;20.00;99.90
61841;DHT22;47773;53.174;6.614;2022-08-03T06:25:08;20.10;99.90
61841;DHT22;47773;53.174;6.614;2022-08-03T06:27:34;20.20;99.90
61841;DHT22;47773;53.174;6.614;2022-08-03T06:30:01;20.30;99.90
61841;DHT22;47773;53.174;6.614;2022-08-03T06:32:26;20.40;99.90
61841;DHT22;47773;53.174;6.614;2022-08-03T06:34:52;20.40;99.90
61841;DHT22;47773;53.174;6.614;2022-08-03T06:37:18;20.40;99.90
61841;DHT22;47773;53.174;6.614;2022-08-03T06:39:43;20.50;99.90
61841;DHT22;47773;53.174;6.614;2022-08-03T06:42:09;20.60;99.90
61841;DHT22;47773;53.174;6.614;2022-08-03T06:44:34;20.60;99.90
61841;DHT22;47773;53.174;6.614;2022-08-03T06:47:02;20.70;99.90
61841;DHT22;47773;53.174;6.614;2022-08-03T06:49:27;20.80;99.90
61841;DHT22;47773;53.174;6.614;2022-08-03T06:51:53;21.00;99.90
61841;DHT22;47773;53.174;6.614;2022-08-03T06:54:19;21.20;99.90
61841;DHT22;47773;53.174;6.614;2022-08-03T06:56:47;21.40;99.90
61841;DHT22;47773;53.174;6.614;2022-08-03T06:59:12;21.40;99.90
61841;DHT22;47773;53.174;6.614;2022-08-03T07:01:38;21.50;99.90
61841;DHT22;47773;53.174;6.614;2022-08-03T07:04:03;21.60;99.90
61841;DHT22;47773;53.174;6.614;2022-08-03T07:06:30;21.80;99.90
61841;DHT22;47773;53.174;6.614;2022-08-03T07:08:56;22.10;99.90
61841;DHT22;47773;53.174;6.614;2022-08-03T07:11:22;22.40;99.90
61841;DHT22;47773;53.174;6.614;2022-08-03T07:13:47;22.50;99.90
61841;DHT22;47773;53.174;6.614;2022-08-03T07:16:13;22.80;99.90
61841;DHT22;47773;53.174;6.614;2022-08-03T07:18:39;23.10;99.90
61841;DHT22;47773;53.174;6.614;2022-08-03T07:21:05;23.30;99.90
61841;DHT22;47773;53.174;6.614;2022-08-03T07:23:32;23.60;99.90
61841;DHT22;47773;53.174;6.614;2022-08-03T07:25:58;23.80;99.90
61841;DHT22;47773;53.174;6.614;2022-08-03T07:28:24;23.90;99.90
61841;DHT22;47773;53.174;6.614;2022-08-03T07:30:50;24.10;99.90
61841;DHT22;47773;53.174;6.614;2022-08-03T07:33:15;24.30;99.90
61841;DHT22;47773;53.174;6.614;2022-08-03T07:35:41;24.40;99.90
61841;DHT22;47773;53.174;6.614;2022-08-03T07:38:07;24.50;99.90
61841;DHT22;47773;53.174;6.614;2022-08-03T07:40:32;24.50;99.90
61841;DHT22;47773;53.174;6.614;2022-08-03T07:42:59;24.50;99.90
61841;DHT22;47773;53.174;6.614;2022-08-03T07:45:24;24.70;99.90
61841;DHT22;47773;53.174;6.614;2022-08-03T07:47:51;24.90;99.90
61841;DHT22;47773;53.174;6.614;2022-08-03T07:50:16;25.10;99.90
61841;DHT22;47773;53.174;6.614;2022-08-03T07:52:42;25.10;99.90
61841;DHT22;47773;53.174;6.614;2022-08-03T07:55:14;25.10;99.90
61841;DHT22;47773;53.174;6.614;2022-08-03T07:57:40;25.20;99.90
61841;DHT22;47773;53.174;6.614;2022-08-03T08:00:15;25.40;99.90
61841;DHT22;47773;53.174;6.614;2022-08-03T08:02:41;25.60;99.90
61841;DHT22;47773;53.174;6.614;2022-08-03T08:05:07;25.70;99.90
61841;DHT22;47773;53.174;6.614;2022-08-03T08:07:35;25.90;99.90
61841;DHT22;47773;53.174;6.614;2022-08-03T08:10:01;26.00;99.90
61841;DHT22;47773;53.174;6.614;2022-08-03T08:12:27;25.90;99.90
61841;DHT22;47773;53.174;6.614;2022-08-03T08:14:52;26.20;99.90
61841;DHT22;47773;53.174;6.614;2022-08-03T08:17:18;26.30;99.90
61841;DHT22;47773;53.174;6.614;2022-08-03T08:19:44;26.20;99.90
61841;DHT22;47773;53.174;6.614;2022-08-03T08:22:10;26.30;99.90
61841;DHT22;47773;53.174;6.614;2022-08-03T08:24:35;26.40;99.90
61841;DHT22;47773;53.174;6.614;2022-08-03T08:27:04;26.50;99.90
61841;DHT22;47773;53.174;6.614;2022-08-03T08:29:29;26.60;99.90
61841;DHT22;47773;53.174;6.614;2022-08-03T08:31:55;26.60;99.90
61841;DHT22;47773;53.174;6.614;2022-08-03T08:34:21;26.40;99.90
61841;DHT22;47773;53.174;6.614;2022-08-03T08:36:46;26.50;99.90
61841;DHT22;47773;53.174;6.614;2022-08-03T08:39:12;26.50;99.90
61841;DHT22;47773;53.174;6.614;2022-08-03T08:41:37;26.50;99.90
61841;DHT22;47773;53.174;6.614;2022-08-03T08:44:06;26.60;99.90
61841;DHT22;47773;53.174;6.614;2022-08-03T08:46:32;26.80;99.90
61841;DHT22;47773;53.174;6.614;2022-08-03T08:48:58;26.80;99.90
61841;DHT22;47773;53.174;6.614;2022-08-03T08:51:29;26.80;99.90
61841;DHT22;47773;53.174;6.614;2022-08-03T08:53:56;26.90;99.90
61841;DHT22;47773;53.174;6.614;2022-08-03T08:56:25;27.00;99.90
61841;DHT22;47773;53.174;6.614;2022-08-03T08:58:59;27.30;99.90
61841;DHT22;47773;53.174;6.614;2022-08-03T09:01:25;27.70;99.90
61841;DHT22;47773;53.174;6.614;2022-08-03T09:03:51;28.00;99.90
61841;DHT22;47773;53.174;6.614;2022-08-03T09:06:19;28.30;99.90
61841;DHT22;47773;53.174;6.614;2022-08-03T09:08:45;28.30;99.90
61841;DHT22;47773;53.174;6.614;2022-08-03T09:11:11;28.20;99.90
61841;DHT22;47773;53.174;6.614;2022-08-03T09:13:37;28.30;99.90
61841;DHT22;47773;53.174;6.614;2022-08-03T09:16:10;28.10;99.90
61841;DHT22;47773;53.174;6.614;2022-08-03T09:18:41;28.20;99.90
61841;DHT22;47773;53.174;6.614;2022-08-03T09:21:21;27.90;99.90
61841;DHT22;47773;53.174;6.614;2022-08-03T09:23:52;27.90;99.90
61841;DHT22;47773;53.174;6.614;2022-08-03T09:26:26;28.20;99.90
61841;DHT22;47773;53.174;6.614;2022-08-03T09:28:57;28.50;99.90
61841;DHT22;47773;53.174;6.614;2022-08-03T09:31:37;28.60;99.90
61841;DHT22;47773;53.174;6.614;2022-08-03T09:34:05;28.60;99.90
61841;DHT22;47773;53.174;6.614;2022-08-03T09:36:38;28.70;99.90
61841;DHT22;47773;53.174;6.614;2022-08-03T09:39:09;28.90;99.90
61841;DHT22;47773;53.174;6.614;2022-08-03T09:41:40;29.20;99.90
61841;DHT22;47773;53.174;6.614;2022-08-03T09:44:06;29.20;99.90
61841;DHT22;47773;53.174;6.614;2022-08-03T09:46:47;29.50;99.90
61841;DHT22;47773;53.174;6.614;2022-08-03T09:49:13;29.60;98.30
61841;DHT22;47773;53.174;6.614;2022-08-03T09:51:39;29.70;98.90
61841;DHT22;47773;53.174;6.614;2022-08-03T09:54:05;29.60;97.30
61841;DHT22;47773;53.174;6.614;2022-08-03T09:56:45;29.60;97.30
61841;DHT22;47773;53.174;6.614;2022-08-03T09:59:13;29.60;96.30
61841;DHT22;47773;53.174;6.614;2022-08-03T10:01:47;29.70;97.30
61841;DHT22;47773;53.174;6.614;2022-08-03T10:04:14;29.80;96.20
61841;DHT22;47773;53.174;6.614;2022-08-03T10:06:44;29.80;95.00
61841;DHT22;47773;53.174;6.614;2022-08-03T10:09:12;29.70;94.00
61841;DHT22;47773;53.174;6.614;2022-08-03T10:11:39;29.70;94.30
61841;DHT22;47773;53.174;6.614;2022-08-03T10:14:07;29.80;95.90
61841;DHT22;47773;53.174;6.614;2022-08-03T10:16:38;30.00;94.80
61841;DHT22;47773;53.174;6.614;2022-08-03T10:19:06;30.20;93.20
61841;DHT22;47773;53.174;6.614;2022-08-03T10:21:35;29.90;92.80
61841;DHT22;47773;53.174;6.614;2022-08-03T10:24:03;30.10;91.90
61841;DHT22;47773;53.174;6.614;2022-08-03T10:26:34;29.90;93.10
61841;DHT22;47773;53.174;6.614;2022-08-03T10:29:04;30.00;92.90
61841;DHT22;47773;53.174;6.614;2022-08-03T10:31:38;30.10;92.30
61841;DHT22;47773;53.174;6.614;2022-08-03T10:34:10;30.20;85.80
61841;DHT22;47773;53.174;6.614;2022-08-03T10:36:36;29.90;92.30
61841;DHT22;47773;53.174;6.614;2022-08-03T10:39:03;30.00;92.20
61841;DHT22;47773;53.174;6.614;2022-08-03T10:41:37;30.10;91.10
61841;DHT22;47773;53.174;6.614;2022-08-03T10:44:13;30.20;89.90
61841;DHT22;47773;53.174;6.614;2022-08-03T10:46:41;30.00;89.60
61841;DHT22;47773;53.174;6.614;2022-08-03T10:49:08;29.90;91.90
61841;DHT22;47773;53.174;6.614;2022-08-03T10:51:36;30.10;91.60
61841;DHT22;47773;53.174;6.614;2022-08-03T10:54:03;30.20;90.90
61841;DHT22;47773;53.174;6.614;2022-08-03T10:59:55;30.30;88.40
61841;DHT22;47773;53.174;6.614;2022-08-03T11:02:05;30.40;87.20
61841;DHT22;47773;53.174;6.614;2022-08-03T11:04:34;30.40;87.70
61841;DHT22;47773;53.174;6.614;2022-08-03T11:07:19;30.20;87.30
61841;DHT22;47773;53.174;6.614;2022-08-03T11:09:51;30.10;78.70
61841;DHT22;47773;53.174;6.614;2022-08-03T11:12:21;30.10;85.30
61841;DHT22;47773;53.174;6.614;2022-08-03T11:14:47;30.10;83.80
61841;DHT22;47773;53.174;6.614;2022-08-03T11:17:13;30.10;84.60
61841;DHT22;47773;53.174;6.614;2022-08-03T11:19:44;29.90;84.90
61841;DHT22;47773;53.174;6.614;2022-08-03T11:22:10;30.10;87.30
61841;DHT22;47773;53.174;6.614;2022-08-03T11:30:07;30.60;78.80
61841;DHT22;47773;53.174;6.614;2022-08-03T11:35:24;30.50;79.30
61841;DHT22;47773;53.174;6.614;2022-08-03T11:40:47;30.50;79.30
61841;DHT22;47773;53.174;6.614;2022-08-03T11:45:59;30.40;74.80
61841;DHT22;47773;53.174;6.614;2022-08-03T11:48:27;30.20;75.10
61841;DHT22;47773;53.174;6.614;2022-08-03T11:50:53;30.20;77.00
61841;DHT22;47773;53.174;6.614;2022-08-03T11:53:19;30.20;77.90
61841;DHT22;47773;53.174;6.614;2022-08-03T11:55:46;30.20;76.60
61841;DHT22;47773;53.174;6.614;2022-08-03T11:58:19;30.10;75.00
61841;DHT22;47773;53.174;6.614;2022-08-03T12:00:45;30.20;75.50
61841;DHT22;47773;53.174;6.614;2022-08-03T12:03:15;30.30;76.30
61841;DHT22;47773;53.174;6.614;2022-08-03T12:05:50;30.40;74.80
61841;DHT22;47773;53.174;6.614;2022-08-03T12:08:30;30.30;73.90
61841;DHT22;47773;53.174;6.614;2022-08-03T12:10:59;30.30;74.80
61841;DHT22;47773;53.174;6.614;2022-08-03T12:13:24;30.30;75.40
61841;DHT22;47773;53.174;6.614;2022-08-03T12:15:52;30.30;75.80
61841;DHT22;47773;53.174;6.614;2022-08-03T12:18:19;30.20;75.70
61841;DHT22;47773;53.174;6.614;2022-08-03T12:20:45;30.20;76.80
61841;DHT22;47773;53.174;6.614;2022-08-03T12:23:12;30.30;76.80
61841;DHT22;47773;53.174;6.614;2022-08-03T12:25:39;30.20;76.30
61841;DHT22;47773;53.174;6.614;2022-08-03T12:28:19;30.20;76.10
61841;DHT22;47773;53.174;6.614;2022-08-03T12:30:48;30.00;75.80
61841;DHT22;47773;53.174;6.614;2022-08-03T12:33:17;29.80;77.00
61841;DHT22;47773;53.174;6.614;2022-08-03T12:35:45;30.00;79.70
61841;DHT22;47773;53.174;6.614;2022-08-03T12:38:12;30.10;79.40
61841;DHT22;47773;53.174;6.614;2022-08-03T12:40:38;30.20;79.10
61841;DHT22;47773;53.174;6.614;2022-08-03T12:43:11;30.00;78.10
61841;DHT22;47773;53.174;6.614;2022-08-03T12:45:37;30.00;76.50
61841;DHT22;47773;53.174;6.614;2022-08-03T12:48:07;29.80;77.60
61841;DHT22;47773;53.174;6.614;2022-08-03T12:50:34;29.90;77.20
61841;DHT22;47773;53.174;6.614;2022-08-03T12:53:03;29.90;76.30
61841;DHT22;47773;53.174;6.614;2022-08-03T12:55:30;29.90;76.40
61841;DHT22;47773;53.174;6.614;2022-08-03T12:58:03;29.80;76.40
61841;DHT22;47773;53.174;6.614;2022-08-03T13:00:29;29.70;74.80
61841;DHT22;47773;53.174;6.614;2022-08-03T13:03:06;29.70;76.80
61841;DHT22;47773;53.174;6.614;2022-08-03T13:05:44;29.70;76.10
61841;DHT22;47773;53.174;6.614;2022-08-03T13:08:20;29.50;76.90
61841;DHT22;47773;53.174;6.614;2022-08-03T13:10:47;29.60;77.10
61841;DHT22;47773;53.174;6.614;2022-08-03T13:13:13;29.50;77.20
61841;DHT22;47773;53.174;6.614;2022-08-03T13:15:39;29.50;77.40
61841;DHT22;47773;53.174;6.614;2022-08-03T13:18:04;29.40;78.10
61841;DHT22;47773;53.174;6.614;2022-08-03T13:20:30;29.50;78.50
61841;DHT22;47773;53.174;6.614;2022-08-03T13:22:56;29.40;79.00
61841;DHT22;47773;53.174;6.614;2022-08-03T13:25:22;29.30;78.00
61841;DHT22;47773;53.174;6.614;2022-08-03T13:27:48;29.30;77.80
61841;DHT22;47773;53.174;6.614;2022-08-03T13:30:14;29.20;77.30
61841;DHT22;47773;53.174;6.614;2022-08-03T13:32:42;29.30;74.90
61841;DHT22;47773;53.174;6.614;2022-08-03T13:35:08;29.40;72.40
61841;DHT22;47773;53.174;6.614;2022-08-03T13:37:34;29.30;70.70
61841;DHT22;47773;53.174;6.614;2022-08-03T13:40:01;29.20;70.70
61841;DHT22;47773;53.174;6.614;2022-08-03T13:42:32;29.10;72.00
61841;DHT22;47773;53.174;6.614;2022-08-03T13:44:58;29.10;74.00
61841;DHT22;47773;53.174;6.614;2022-08-03T13:47:25;29.10;73.90
61841;DHT22;47773;53.174;6.614;2022-08-03T13:49:51;29.00;72.40
61841;DHT22;47773;53.174;6.614;2022-08-03T13:52:18;29.00;73.10
61841;DHT22;47773;53.174;6.614;2022-08-03T13:54:46;29.00;75.50
61841;DHT22;47773;53.174;6.614;2022-08-03T13:57:12;29.00;76.20
61841;DHT22;47773;53.174;6.614;2022-08-03T13:59:38;29.00;78.00
61841;DHT22;47773;53.174;6.614;2022-08-03T14:02:03;28.90;80.50
61841;DHT22;47773;53.174;6.614;2022-08-03T14:04:29;29.00;81.40
61841;DHT22;47773;53.174;6.614;2022-08-03T14:06:55;29.00;81.80
61841;DHT22;47773;53.174;6.614;2022-08-03T14:09:21;29.00;81.80
61841;DHT22;47773;53.174;6.614;2022-08-03T14:11:46;29.10;81.50
61841;DHT22;47773;53.174;6.614;2022-08-03T14:14:12;29.10;81.10
61841;DHT22;47773;53.174;6.614;2022-08-03T14:16:38;29.10;81.00
61841;DHT22;47773;53.174;6.614;2022-08-03T14:19:04;29.10;81.20
61841;DHT22;47773;53.174;6.614;2022-08-03T14:21:32;29.10;81.20
61841;DHT22;47773;53.174;6.614;2022-08-03T14:23:58;29.10;81.90
61841;DHT22;47773;53.174;6.614;2022-08-03T14:26:23;29.10;82.10
61841;DHT22;47773;53.174;6.614;2022-08-03T14:28:49;29.00;81.50
61841;DHT22;47773;53.174;6.614;2022-08-03T14:31:15;28.90;81.10
61841;DHT22;47773;53.174;6.614;2022-08-03T14:33:41;28.80;81.40
61841;DHT22;47773;53.174;6.614;2022-08-03T14:36:09;28.80;82.10
61841;DHT22;47773;53.174;6.614;2022-08-03T14:38:35;28.80;82.50
61841;DHT22;47773;53.174;6.614;2022-08-03T14:41:01;28.80;81.80
61841;DHT22;47773;53.174;6.614;2022-08-03T14:43:26;28.80;81.40
61841;DHT22;47773;53.174;6.614;2022-08-03T14:45:52;28.80;79.20
61841;DHT22;47773;53.174;6.614;2022-08-03T14:48:22;28.90;78.20
61841;DHT22;47773;53.174;6.614;2022-08-03T14:50:48;28.90;76.80
61841;DHT22;47773;53.174;6.614;2022-08-03T14:53:15;28.90;78.00
61841;DHT22;47773;53.174;6.614;2022-08-03T14:55:44;28.90;77.20
61841;DHT22;47773;53.174;6.614;2022-08-03T14:58:10;28.80;77.70
61841;DHT22;47773;53.174;6.614;2022-08-03T15:00:36;28.70;78.60
61841;DHT22;47773;53.174;6.614;2022-08-03T15:03:02;28.60;79.60
61841;DHT22;47773;53.174;6.614;2022-08-03T15:05:29;28.60;78.50
61841;DHT22;47773;53.174;6.614;2022-08-03T15:07:55;28.60;77.30
61841;DHT22;47773;53.174;6.614;2022-08-03T15:10:20;28.60;76.60
61841;DHT22;47773;53.174;6.614;2022-08-03T15:12:46;28.60;75.60
61841;DHT22;47773;53.174;6.614;2022-08-03T15:15:12;28.50;74.00
61841;DHT22;47773;53.174;6.614;2022-08-03T15:17:37;28.60;74.00
61841;DHT22;47773;53.174;6.614;2022-08-03T15:20:04;28.60;73.30
61841;DHT22;47773;53.174;6.614;2022-08-03T15:22:30;28.70;72.30
61841;DHT22;47773;53.174;6.614;2022-08-03T15:24:57;28.60;71.10
61841;DHT22;47773;53.174;6.614;2022-08-03T15:27:22;28.60;70.80
61841;DHT22;47773;53.174;6.614;2022-08-03T15:29:48;28.70;70.60
61841;DHT22;47773;53.174;6.614;2022-08-03T15:32:14;28.70;70.40
61841;DHT22;47773;53.174;6.614;2022-08-03T15:34:40;28.70;70.30
61841;DHT22;47773;53.174;6.614;2022-08-03T15:37:05;28.70;70.20
61841;DHT22;47773;53.174;6.614;2022-08-03T15:39:31;28.70;70.30
61841;DHT22;47773;53.174;6.614;2022-08-03T15:41:57;28.70;70.20
61841;DHT22;47773;53.174;6.614;2022-08-03T15:44:25;28.60;69.80
61841;DHT22;47773;53.174;6.614;2022-08-03T15:46:51;28.60;70.30
61841;DHT22;47773;53.174;6.614;2022-08-03T15:49:17;28.60;70.50
61841;DHT22;47773;53.174;6.614;2022-08-03T15:51:45;28.60;69.90
61841;DHT22;47773;53.174;6.614;2022-08-03T15:54:11;28.60;69.20
61841;DHT22;47773;53.174;6.614;2022-08-03T15:56:36;28.60;69.00
61841;DHT22;47773;53.174;6.614;2022-08-03T15:59:03;28.50;68.40
61841;DHT22;47773;53.174;6.614;2022-08-03T16:01:29;28.50;67.50